createdAt,value
2018-09-18T00:00:36.702Z,92.95
2018-09-18T00:03:05.304Z,91.84
2018-09-18T00:05:34.518Z,91.19
2018-09-18T00:08:03.200Z,92.35
2018-09-18T00:10:31.822Z,93.35
2018-09-18T00:13:00.572Z,92.58
2018-09-18T00:15:29.032Z,92.64
2018-09-18T00:17:57.689Z,92.97
2018-09-18T00:20:26.350Z,93.59
2018-09-18T00:22:54.958Z,93.87
2018-09-18T00:25:23.452Z,93.73
2018-09-18T00:27:52.078Z,93.92
2018-09-18T00:30:20.639Z,93.61
2018-09-18T00:32:49.172Z,93.48
2018-09-18T00:35:18.011Z,93.68
2018-09-18T00:37:46.695Z,93.94
2018-09-18T00:40:15.494Z,93.50
2018-09-18T00:42:43.946Z,93.47
2018-09-18T00:45:12.604Z,94.03
2018-09-18T00:47:41.093Z,93.88
2018-09-18T00:50:09.754Z,94.32
2018-09-18T00:52:38.309Z,94.93
2018-09-18T00:55:06.978Z,94.16
2018-09-18T00:57:35.625Z,94.57
2018-09-18T01:00:04.242Z,94.23
2018-09-18T01:02:32.847Z,93.79
2018-09-18T01:05:01.516Z,94.21
2018-09-18T01:07:30.130Z,94.60
2018-09-18T01:09:58.702Z,94.85
2018-09-18T01:12:27.336Z,94.21
2018-09-18T01:14:57.075Z,94.33
2018-09-18T01:17:25.658Z,94.66
2018-09-18T01:19:54.302Z,94.39
2018-09-18T01:22:22.828Z,94.30
2018-09-18T01:24:51.817Z,94.50
2018-09-18T01:27:20.645Z,94.84
2018-09-18T01:29:49.210Z,94.32
2018-09-18T01:32:17.693Z,94.39
2018-09-18T01:34:46.266Z,94.29
2018-09-18T01:37:15.039Z,94.61
2018-09-18T01:39:43.625Z,94.30
2018-09-18T01:42:12.394Z,94.63
2018-09-18T01:44:40.857Z,94.48
2018-09-18T01:47:09.454Z,94.33
2018-09-18T01:49:38.094Z,93.71
2018-09-18T01:52:06.745Z,94.61
2018-09-18T01:54:35.241Z,94.28
2018-09-18T01:57:03.916Z,93.43
2018-09-18T01:59:32.618Z,94.02
2018-09-18T02:02:01.134Z,93.99
2018-09-18T02:04:29.888Z,93.47
2018-09-18T02:06:58.418Z,93.21
2018-09-18T02:09:27.046Z,92.93
2018-09-18T02:11:55.652Z,92.58
2018-09-18T02:14:24.109Z,92.25
2018-09-18T02:16:52.673Z,92.25
2018-09-18T02:19:21.122Z,92.58
2018-09-18T02:21:49.777Z,92.82
2018-09-18T02:24:18.403Z,92.62
2018-09-18T02:26:47.053Z,92.80
2018-09-18T02:29:15.694Z,92.90
2018-09-18T02:31:44.186Z,92.80
2018-09-18T02:34:12.894Z,92.26
2018-09-18T02:36:41.437Z,92.99
2018-09-18T02:39:11.841Z,92.21
2018-09-18T02:41:40.543Z,92.25
2018-09-18T02:44:09.229Z,92.62
2018-09-18T02:46:37.766Z,92.42
2018-09-18T02:49:06.577Z,92.58
2018-09-18T02:51:35.107Z,91.85
2018-09-18T02:54:03.613Z,92.34
2018-09-18T02:56:32.158Z,92.06
2018-09-18T02:59:00.636Z,91.79
2018-09-18T03:01:29.417Z,92.06
2018-09-18T03:03:57.898Z,92.00
2018-09-18T03:06:27.066Z,91.94
2018-09-18T03:08:55.677Z,91.55
2018-09-18T03:11:24.257Z,91.34
2018-09-18T03:13:52.702Z,91.45
2018-09-18T03:16:21.271Z,91.11
2018-09-18T03:18:49.952Z,91.53
2018-09-18T03:21:18.426Z,91.09
2018-09-18T03:23:47.277Z,92.22
2018-09-18T03:26:15.746Z,91.89
2018-09-18T03:28:44.341Z,91.60
2018-09-18T03:31:12.810Z,91.65
2018-09-18T03:33:41.316Z,91.93
2018-09-18T03:36:09.818Z,91.64
2018-09-18T03:38:38.282Z,91.53
2018-09-18T03:41:07.402Z,92.21
2018-09-18T03:43:35.915Z,91.77
2018-09-18T03:46:04.774Z,91.59
2018-09-18T03:48:33.455Z,91.74
2018-09-18T03:51:02.176Z,91.81
2018-09-18T03:53:30.646Z,91.93
2018-09-18T03:55:59.114Z,92.28
2018-09-18T03:58:27.745Z,92.15
2018-09-18T04:00:56.209Z,91.81
2018-09-18T04:03:24.951Z,92.57
2018-09-18T04:05:53.488Z,92.66
2018-09-18T04:08:22.306Z,92.48
2018-09-18T04:10:50.879Z,92.41
2018-09-18T04:13:19.510Z,92.49
2018-09-18T04:15:48.134Z,92.70
2018-09-18T04:18:19.393Z,92.82
2018-09-18T04:20:47.974Z,92.77
2018-09-18T04:23:16.487Z,92.64
2018-09-18T04:25:46.073Z,92.45
2018-09-18T04:28:14.571Z,92.54
2018-09-18T04:30:43.703Z,92.85
2018-09-18T04:33:12.206Z,93.04
2018-09-18T04:35:40.807Z,93.09
2018-09-18T04:38:09.375Z,92.90
2018-09-18T04:40:38.088Z,93.28
2018-09-18T04:43:06.666Z,93.26
2018-09-18T04:45:35.340Z,92.84
2018-09-18T04:48:03.814Z,93.22
2018-09-18T04:50:32.282Z,92.62
2018-09-18T04:53:00.954Z,92.96
2018-09-18T04:55:29.474Z,92.77
2018-09-18T04:57:59.779Z,92.94
2018-09-18T05:00:28.347Z,92.74
2018-09-18T05:02:58.622Z,93.10
2018-09-18T05:05:27.385Z,92.75
2018-09-18T05:07:58.158Z,92.25
2018-09-18T05:10:26.751Z,92.91
2018-09-18T05:12:55.925Z,93.46
2018-09-18T05:15:24.618Z,93.09
2018-09-18T05:17:54.998Z,93.40
2018-09-18T05:20:23.486Z,92.99
2018-09-18T05:22:52.070Z,92.34
2018-09-18T05:25:20.544Z,92.74
2018-09-18T05:27:49.358Z,92.89
2018-09-18T05:30:17.963Z,93.15
2018-09-18T05:32:46.826Z,92.69
2018-09-18T05:35:15.396Z,92.61
2018-09-18T05:37:44.023Z,92.48
2018-09-18T05:40:13.734Z,91.30
2018-09-18T05:42:42.194Z,90.97
2018-09-18T05:45:13.147Z,90.63
2018-09-18T05:47:42.898Z,90.43
2018-09-18T05:50:11.498Z,90.10
2018-09-18T05:52:40.042Z,90.27
2018-09-18T05:55:11.053Z,89.85
2018-09-18T05:57:39.759Z,89.63
2018-09-18T06:00:08.482Z,89.48
2018-09-18T06:02:37.738Z,88.80
2018-09-18T06:05:09.231Z,88.92
2018-09-18T06:07:38.086Z,88.04
2018-09-18T06:10:07.150Z,87.40
2018-09-18T06:12:35.819Z,87.58
2018-09-18T06:15:05.210Z,87.12
2018-09-18T06:17:33.825Z,86.74
2018-09-18T06:20:03.778Z,86.88
2018-09-18T06:22:32.292Z,86.63
2018-09-18T06:25:01.404Z,86.44
2018-09-18T06:27:30.058Z,86.25
2018-09-18T06:29:58.952Z,85.76
2018-09-18T06:32:27.438Z,85.79
2018-09-18T06:34:56.682Z,83.97
2018-09-18T06:37:25.299Z,83.96
2018-09-18T06:39:56.072Z,82.20
2018-09-18T06:42:24.793Z,83.05
2018-09-18T06:44:53.407Z,82.73
2018-09-18T06:47:23.370Z,81.92
2018-09-18T06:49:52.508Z,82.13
2018-09-18T06:52:21.315Z,81.73
2018-09-18T06:54:50.667Z,81.84
2018-09-18T06:57:21.981Z,81.31
2018-09-18T06:59:53.282Z,81.02
2018-09-18T07:02:21.892Z,80.90
2018-09-18T07:04:52.601Z,80.60
2018-09-18T07:07:21.827Z,79.91
2018-09-18T07:09:52.982Z,79.67
2018-09-18T07:12:21.462Z,79.61
2018-09-18T07:14:51.658Z,79.38
2018-09-18T07:17:20.282Z,79.57
2018-09-18T07:19:49.148Z,79.85
2018-09-18T07:22:17.626Z,78.74
2018-09-18T07:24:48.944Z,78.45
2018-09-18T07:27:19.412Z,77.70
2018-09-18T07:29:49.858Z,78.48
2018-09-18T07:32:19.561Z,77.80
2018-09-18T07:34:49.677Z,78.05
2018-09-18T07:37:20.231Z,77.32
2018-09-18T07:39:51.175Z,76.91
2018-09-18T07:42:20.965Z,77.25
2018-09-18T07:44:49.454Z,76.68
2018-09-18T07:47:19.446Z,76.47
2018-09-18T07:49:47.914Z,75.58
2018-09-18T07:52:18.015Z,75.71
2018-09-18T07:54:46.538Z,75.32
2018-09-18T07:57:15.801Z,75.22
2018-09-18T07:59:44.857Z,74.98
2018-09-18T08:02:13.739Z,75.82
2018-09-18T08:04:42.823Z,74.07
2018-09-18T08:07:11.531Z,74.43
2018-09-18T08:09:40.242Z,73.68
2018-09-18T08:12:08.774Z,74.17
2018-09-18T08:14:37.624Z,73.54
2018-09-18T08:17:06.615Z,73.39
2018-09-18T08:19:35.472Z,73.80
2018-09-18T08:22:03.989Z,71.76
2018-09-18T08:24:32.730Z,72.59
2018-09-18T08:27:01.251Z,72.49
2018-09-18T08:29:29.808Z,71.50
2018-09-18T08:31:59.068Z,71.02
2018-09-18T08:34:27.674Z,70.07
2018-09-18T08:36:57.085Z,70.12
2018-09-18T08:39:25.637Z,69.22
2018-09-18T08:41:56.310Z,68.42
2018-09-18T08:44:24.922Z,70.37
2018-09-18T08:46:53.822Z,68.78
2018-09-18T08:49:22.827Z,70.82
2018-09-18T08:51:51.985Z,71.22
2018-09-18T08:54:20.593Z,71.18
2018-09-18T08:56:49.663Z,68.56
2018-09-18T08:59:18.199Z,68.71
2018-09-18T09:01:46.699Z,67.64
2018-09-18T09:04:16.185Z,67.83
2018-09-18T09:06:44.935Z,67.54
2018-09-18T09:09:15.010Z,65.77
2018-09-18T09:11:45.033Z,68.53
2018-09-18T09:14:15.064Z,67.58
2018-09-18T09:16:43.666Z,66.77
2018-09-18T09:19:12.467Z,65.91
2018-09-18T09:21:41.052Z,64.71
2018-09-18T09:24:09.844Z,63.45
2018-09-18T09:26:38.399Z,65.33
2018-09-18T09:29:07.159Z,63.62
2018-09-18T09:31:35.721Z,64.92
2018-09-18T09:34:05.264Z,63.67
2018-09-18T09:36:33.974Z,61.12
2018-09-18T09:39:02.723Z,62.26
2018-09-18T09:41:32.856Z,60.41
2018-09-18T09:44:01.752Z,61.13
2018-09-18T09:46:30.450Z,61.45
2018-09-18T09:48:59.083Z,62.29
2018-09-18T09:51:28.595Z,60.58
2018-09-18T09:53:57.170Z,60.21
2018-09-18T09:56:25.811Z,61.12
2018-09-18T09:58:54.299Z,59.52
2018-09-18T10:01:28.567Z,60.04
2018-09-18T10:03:57.567Z,59.17
2018-09-18T10:06:26.740Z,57.15
2018-09-18T10:08:55.624Z,58.01
2018-09-18T10:11:24.182Z,57.94
2018-09-18T10:13:52.850Z,56.67
2018-09-18T10:16:21.756Z,55.67
2018-09-18T10:18:50.240Z,57.13
2018-09-18T10:21:19.266Z,55.38
2018-09-18T10:23:47.810Z,58.58
2018-09-18T10:26:17.686Z,56.85
2018-09-18T10:28:46.086Z,55.44
2018-09-18T10:31:14.771Z,55.96
2018-09-18T10:33:43.421Z,55.36
2018-09-18T10:36:13.643Z,55.50
2018-09-18T10:38:42.234Z,54.35
2018-09-18T10:41:10.867Z,55.88
2018-09-18T10:43:42.353Z,55.76
2018-09-18T10:46:10.934Z,55.98
2018-09-18T10:48:45.952Z,56.18
2018-09-18T10:51:15.247Z,53.38
2018-09-18T10:53:43.813Z,55.72
2018-09-18T10:56:13.768Z,54.86
2018-09-18T10:58:42.249Z,53.92
2018-09-18T11:01:12.792Z,54.80
2018-09-18T11:03:41.404Z,55.60
2018-09-18T11:06:10.942Z,55.61
2018-09-18T11:08:39.490Z,54.21
2018-09-18T11:11:09.571Z,55.38
2018-09-18T11:13:38.090Z,55.09
2018-09-18T11:16:08.042Z,55.43
2018-09-18T11:18:36.448Z,52.12
2018-09-18T11:21:05.213Z,52.70
2018-09-18T11:23:33.786Z,53.21
2018-09-18T11:26:02.478Z,51.18
2018-09-18T11:28:31.030Z,54.00
2018-09-18T11:30:59.672Z,53.64
2018-09-18T11:33:29.146Z,52.22
2018-09-18T11:35:58.766Z,51.24
2018-09-18T11:38:32.309Z,51.46
2018-09-18T11:41:01.046Z,53.08
2018-09-18T11:43:29.594Z,52.28
2018-09-18T11:45:59.510Z,53.13
2018-09-18T11:48:27.977Z,52.67
2018-09-18T11:50:56.868Z,52.88
2018-09-18T11:53:27.715Z,52.32
2018-09-18T11:55:57.776Z,53.03
2018-09-18T11:58:26.436Z,52.69
2018-09-18T12:00:59.655Z,51.26
2018-09-18T12:03:28.764Z,49.34
2018-09-18T12:05:58.095Z,50.96
2018-09-18T12:08:26.660Z,51.36
2018-09-18T12:10:56.738Z,51.17
2018-09-18T12:13:25.302Z,51.17
2018-09-18T12:15:54.834Z,51.93
2018-09-18T12:18:23.378Z,50.44
2018-09-18T12:20:52.522Z,50.01
2018-09-18T12:23:21.054Z,51.26
2018-09-18T12:25:49.932Z,50.08
2018-09-18T12:28:18.403Z,50.03
2018-09-18T12:30:47.130Z,51.26
2018-09-18T12:33:16.518Z,51.59
2018-09-18T12:35:45.084Z,52.59
2018-09-18T12:38:16.120Z,50.37
2018-09-18T12:40:45.250Z,51.53
2018-09-18T12:43:15.376Z,49.98
2018-09-18T12:45:43.998Z,50.90
2018-09-18T12:48:13.434Z,50.38
2018-09-18T12:50:43.112Z,51.25
2018-09-18T12:53:12.325Z,50.16
2018-09-18T12:55:41.047Z,49.05
2018-09-18T12:58:11.761Z,50.20
2018-09-18T13:00:44.267Z,49.99
2018-09-18T13:03:12.758Z,49.91
2018-09-18T13:05:44.075Z,50.18
2018-09-18T13:08:12.569Z,49.58
2018-09-18T13:10:43.027Z,50.06
2018-09-18T13:13:12.427Z,50.57
2018-09-18T13:15:45.213Z,50.12
2018-09-18T13:18:17.101Z,51.50
2018-09-18T13:20:45.704Z,50.52
2018-09-18T13:25:47.550Z,48.33
2018-09-18T13:28:18.302Z,49.71
2018-09-18T13:30:47.042Z,50.04
2018-09-18T13:33:16.930Z,49.37
2018-09-18T13:35:45.550Z,48.83
2018-09-18T13:38:16.388Z,49.32
2018-09-18T13:40:45.186Z,49.49
2018-09-18T13:43:14.955Z,49.78
2018-09-18T13:45:43.542Z,49.53
2018-09-18T13:48:13.421Z,49.28
2018-09-18T13:50:41.927Z,50.00
2018-09-18T13:53:11.211Z,50.03
2018-09-18T13:55:39.841Z,49.01
2018-09-18T13:58:08.738Z,48.11
2018-09-18T14:00:37.274Z,48.16
2018-09-18T14:03:06.044Z,48.20
2018-09-18T14:05:34.532Z,48.16
2018-09-18T14:08:03.112Z,49.46
2018-09-18T14:10:31.697Z,48.97
2018-09-18T14:13:00.157Z,50.04
2018-09-18T14:15:28.876Z,49.60
2018-09-18T14:17:57.532Z,49.76
2018-09-18T14:20:26.411Z,49.95
2018-09-18T14:22:54.957Z,50.22
2018-09-18T14:25:23.764Z,51.64
2018-09-18T14:27:52.479Z,50.40
2018-09-18T14:30:21.014Z,50.80
2018-09-18T14:32:49.550Z,50.27
2018-09-18T14:35:18.006Z,51.45
2018-09-18T14:37:46.867Z,50.37
2018-09-18T14:40:15.523Z,50.61
2018-09-18T14:42:44.384Z,51.15
2018-09-18T14:45:12.905Z,51.16
2018-09-18T14:47:41.601Z,51.25
2018-09-18T14:50:10.102Z,51.44
2018-09-18T14:52:38.755Z,51.05
2018-09-18T14:55:07.326Z,50.81
2018-09-18T14:57:35.890Z,50.57
2018-09-18T15:00:04.593Z,51.02
2018-09-18T15:02:39.686Z,50.67
2018-09-18T15:05:08.183Z,51.06
2018-09-18T15:07:36.905Z,50.08
2018-09-18T15:10:05.470Z,51.10
2018-09-18T15:12:34.058Z,50.83
2018-09-18T15:15:02.631Z,51.51
2018-09-18T15:17:31.228Z,49.33
2018-09-18T15:19:59.989Z,49.67
2018-09-18T15:22:28.510Z,49.91
2018-09-18T15:24:57.235Z,50.72
2018-09-18T15:27:25.733Z,50.67
2018-09-18T15:29:54.339Z,50.32
2018-09-18T15:32:22.951Z,51.01
2018-09-18T15:34:51.632Z,50.59
2018-09-18T15:37:20.177Z,51.17
2018-09-18T15:39:48.786Z,52.20
2018-09-18T15:42:17.370Z,50.68
2018-09-18T15:44:46.023Z,51.41
2018-09-18T15:47:14.822Z,51.54
2018-09-18T15:49:43.306Z,51.47
2018-09-18T15:52:11.936Z,51.06
2018-09-18T15:54:40.359Z,51.10
2018-09-18T15:57:08.865Z,52.53
2018-09-18T15:59:37.398Z,51.98
2018-09-18T16:02:05.931Z,51.61
2018-09-18T16:04:34.618Z,52.14
2018-09-18T16:07:03.112Z,51.57
2018-09-18T16:09:32.059Z,52.55
2018-09-18T16:12:00.537Z,52.29
2018-09-18T16:14:29.168Z,52.62
2018-09-18T16:16:57.707Z,52.48
2018-09-18T16:19:26.173Z,53.38
2018-09-18T16:21:55.425Z,53.02
2018-09-18T16:24:24.349Z,54.09
2018-09-18T16:26:53.364Z,53.88
2018-09-18T16:29:21.877Z,54.33
2018-09-18T16:31:50.882Z,53.77
2018-09-18T16:34:19.358Z,53.81
2018-09-18T16:36:48.007Z,54.43
2018-09-18T16:39:16.509Z,54.14
2018-09-18T16:41:45.233Z,53.53
2018-09-18T16:44:14.519Z,53.48
2018-09-18T16:46:43.186Z,52.94
2018-09-18T16:49:11.598Z,53.00
2018-09-18T16:51:40.783Z,53.12
2018-09-18T16:54:09.556Z,53.26
2018-09-18T16:56:38.172Z,52.87
2018-09-18T16:59:06.809Z,53.02
2018-09-18T17:01:35.449Z,53.04
2018-09-18T17:04:04.274Z,53.53
2018-09-18T17:06:32.801Z,52.77
2018-09-18T17:09:01.937Z,53.70
2018-09-18T17:11:30.438Z,52.95
2018-09-18T17:13:59.278Z,53.92
2018-09-18T17:16:27.878Z,54.18
2018-09-18T17:18:56.575Z,53.87
2018-09-18T17:21:25.783Z,54.51
2018-09-18T17:23:58.321Z,54.38
2018-09-18T17:26:27.095Z,55.18
2018-09-18T17:28:56.887Z,55.48
2018-09-18T17:31:25.394Z,55.16
2018-09-18T17:33:54.170Z,54.99
2018-09-18T17:36:23.416Z,55.89
2018-09-18T17:38:52.068Z,56.19
2018-09-18T17:41:22.117Z,56.56
2018-09-18T17:43:50.656Z,56.62
2018-09-18T17:46:19.328Z,57.68
2018-09-18T17:48:47.817Z,57.51
2018-09-18T17:51:17.657Z,57.94
2018-09-18T17:53:47.265Z,58.39
2018-09-18T17:56:16.173Z,59.28
2018-09-18T17:58:44.760Z,60.05
2018-09-18T18:01:13.934Z,60.04
2018-09-18T18:03:42.528Z,60.51
2018-09-18T18:06:11.129Z,60.87
2018-09-18T18:08:42.414Z,60.91
2018-09-18T18:11:11.418Z,61.82
2018-09-18T18:13:39.910Z,62.38
2018-09-18T18:16:08.694Z,63.05
2018-09-18T18:18:37.277Z,63.37
2018-09-18T18:21:05.846Z,64.55
2018-09-18T18:23:34.372Z,63.96
2018-09-18T18:26:03.492Z,64.98
2018-09-18T18:28:32.910Z,65.11
2018-09-18T18:31:01.473Z,66.65
2018-09-18T18:33:31.162Z,66.96
2018-09-18T18:35:59.893Z,67.50
2018-09-18T18:38:28.910Z,69.08
2018-09-18T18:40:57.500Z,68.67
2018-09-18T18:43:26.225Z,68.80
2018-09-18T18:45:54.797Z,69.46
2018-09-18T18:48:23.514Z,70.37
2018-09-18T18:50:51.949Z,70.75
2018-09-18T18:53:20.485Z,70.88
2018-09-18T18:55:49.098Z,71.49
2018-09-18T18:58:17.713Z,71.39
2018-09-18T19:00:46.726Z,71.78
2018-09-18T19:03:15.412Z,72.97
2018-09-18T19:05:44.319Z,72.71
2018-09-18T19:08:12.799Z,73.17
2018-09-18T19:10:41.484Z,73.51
2018-09-18T19:13:10.050Z,73.83
2018-09-18T19:15:38.548Z,73.91
2018-09-18T19:18:07.292Z,74.09
2018-09-18T19:20:35.755Z,74.51
2018-09-18T19:23:04.561Z,74.53
2018-09-18T19:25:33.251Z,75.54
2018-09-18T19:28:02.547Z,74.23
2018-09-18T19:30:31.009Z,75.91
2018-09-18T19:32:59.712Z,75.96
2018-09-18T19:35:28.177Z,75.75
2018-09-18T19:37:56.786Z,76.72
2018-09-18T19:40:25.659Z,76.41
2018-09-18T19:42:54.162Z,76.55
2018-09-18T19:45:22.829Z,77.18
2018-09-18T19:47:51.402Z,76.75
2018-09-18T19:50:20.038Z,76.00
2018-09-18T19:52:49.097Z,76.03
2018-09-18T19:55:18.285Z,76.42
2018-09-18T19:57:47.030Z,75.09
2018-09-18T20:00:15.815Z,76.39
2018-09-18T20:02:44.321Z,75.33
2018-09-18T20:05:13.203Z,75.44
2018-09-18T20:07:41.738Z,76.82
2018-09-18T20:10:10.350Z,75.76
2018-09-18T20:12:39.224Z,76.00
2018-09-18T20:15:07.790Z,75.67
2018-09-18T20:17:36.579Z,75.77
2018-09-18T20:20:05.289Z,76.16
2018-09-18T20:22:33.874Z,76.70
2018-09-18T20:25:02.459Z,77.10
2018-09-18T20:27:30.946Z,76.14
2018-09-18T20:29:59.720Z,76.42
2018-09-18T20:32:28.270Z,76.50
2018-09-18T20:34:56.977Z,76.92
2018-09-18T20:37:25.460Z,76.78
2018-09-18T20:39:54.138Z,77.22
2018-09-18T20:42:22.644Z,77.94
2018-09-18T20:44:51.215Z,77.60
2018-09-18T20:47:20.018Z,77.80
2018-09-18T20:49:48.548Z,77.28
2018-09-18T20:52:17.309Z,77.33
2018-09-18T20:54:45.922Z,77.95
2018-09-18T20:57:14.760Z,77.94
2018-09-18T20:59:43.394Z,78.61
2018-09-18T21:02:13.544Z,79.44
2018-09-18T21:04:42.082Z,78.85
2018-09-18T21:07:10.651Z,78.82
2018-09-18T21:09:39.215Z,79.06
2018-09-18T21:12:07.786Z,78.66
2018-09-18T21:14:36.552Z,79.16
2018-09-18T21:17:05.211Z,79.36
2018-09-18T21:19:33.781Z,80.60
2018-09-18T21:22:02.376Z,79.79
2018-09-18T21:24:30.978Z,80.53
2018-09-18T21:26:59.568Z,79.83
2018-09-18T21:29:28.075Z,80.79
2018-09-18T21:31:56.738Z,80.66
2018-09-18T21:34:25.206Z,81.67
2018-09-18T21:36:53.993Z,80.45
2018-09-18T21:39:22.537Z,81.35
2018-09-18T21:41:51.166Z,81.04
2018-09-18T21:44:19.766Z,81.50
2018-09-18T21:46:48.277Z,81.30
2018-09-18T21:49:16.843Z,82.15
2018-09-18T21:51:45.374Z,81.47
2018-09-18T21:54:14.174Z,81.96
2018-09-18T21:56:42.641Z,81.48
2018-09-18T21:59:11.918Z,81.72
2018-09-18T22:01:40.435Z,81.75
2018-09-18T22:04:08.957Z,81.67
2018-09-18T22:06:37.597Z,81.02
2018-09-18T22:09:06.881Z,81.79
2018-09-18T22:11:35.537Z,82.24
2018-09-18T22:14:04.054Z,81.92
2018-09-18T22:16:32.755Z,82.30
2018-09-18T22:19:01.848Z,81.97
2018-09-18T22:21:30.697Z,81.95
2018-09-18T22:23:59.277Z,82.63
2018-09-18T22:26:27.959Z,83.02
2018-09-18T22:28:56.510Z,83.28
2018-09-18T22:31:25.179Z,83.35
2018-09-18T22:33:54.357Z,83.70
2018-09-18T22:36:22.870Z,82.81
2018-09-18T22:38:51.659Z,83.71
2018-09-18T22:41:20.246Z,83.00
2018-09-18T22:43:48.900Z,84.22
2018-09-18T22:46:17.375Z,83.82
2018-09-18T22:48:45.954Z,84.35
2018-09-18T22:51:14.673Z,83.53
2018-09-18T22:53:43.518Z,84.18
2018-09-18T22:56:12.120Z,84.18
2018-09-18T22:58:40.598Z,85.08
2018-09-18T23:01:09.482Z,84.04
2018-09-18T23:03:37.974Z,83.89
2018-09-18T23:06:06.813Z,84.23
2018-09-18T23:08:35.318Z,84.83
2018-09-18T23:11:03.884Z,84.38
2018-09-18T23:13:32.421Z,85.35
2018-09-18T23:16:00.936Z,84.97
2018-09-18T23:18:29.679Z,84.83
2018-09-18T23:20:58.486Z,85.15
2018-09-18T23:23:27.294Z,84.41
2018-09-18T23:25:55.908Z,84.96
2018-09-18T23:28:24.726Z,85.40
2018-09-18T23:30:53.438Z,85.85
2018-09-18T23:33:22.163Z,85.25
2018-09-18T23:35:50.676Z,85.38
2018-09-18T23:38:19.390Z,85.15
2018-09-18T23:40:48.038Z,85.30
2018-09-18T23:43:16.518Z,85.45
2018-09-18T23:45:45.224Z,85.33
2018-09-18T23:48:13.696Z,85.24
2018-09-18T23:50:42.485Z,85.67
2018-09-18T23:53:11.054Z,85.82
2018-09-18T23:55:39.682Z,85.02
2018-09-18T23:58:08.168Z,86.65
